Time;durP1;ratioP1;P1;durP2;ratioP2;P2;SDS_P1;SDS_P2;PMS_P1;PMS_P2;Temp;Humidity;BMP_temperature;BMP_pressure;BME280_temperature;BME280_humidity;BME280_pressure;Samples;Min_cycle;Max_cycle;Signal;HPM_P1;HPM_P2
2021/01/30 00:00:34;;;;;;;7.15;5.57;;;23.30;99.90;;;;;;5028339;28;20377;-82
2021/01/30 00:03:01;;;;;;;6.53;5.07;;;23.30;99.90;;;;;;5028256;28;20378;-81
2021/01/30 00:05:29;;;;;;;6.13;5.53;;;23.40;99.90;;;;;;5016836;28;20411;-81
2021/01/30 00:07:57;;;;;;;7.15;5.75;;;23.30;99.90;;;;;;5045985;28;20400;-82
2021/01/30 00:10:24;;;;;;;9.13;6.20;;;23.20;99.90;;;;;;5031917;28;20368;-82
2021/01/30 00:12:51;;;;;;;6.43;5.78;;;23.10;99.90;;;;;;5032001;28;20413;-82
2021/01/30 00:15:22;;;;;;;8.35;6.13;;;23.00;99.90;;;;;;5031701;28;20376;-82
2021/01/30 00:17:51;;;;;;;9.50;6.13;;;23.00;99.90;;;;;;5046545;28;20392;-82
2021/01/30 00:20:23;;;;;;;8.57;6.25;;;22.90;99.90;;;;;;5034494;28;20451;-83
2021/01/30 00:22:52;;;;;;;7.30;6.10;;;22.90;99.90;;;;;;5034036;28;21173;-82
2021/01/30 00:25:25;;;;;;;7.65;6.57;;;22.90;99.90;;;;;;5040617;28;20432;-81
2021/01/30 00:27:52;;;;;;;10.32;7.40;;;22.90;99.90;;;;;;5042892;28;20403;-81
2021/01/30 00:30:21;;;;;;;11.35;7.25;;;22.90;99.90;;;;;;5031075;28;20377;-81
2021/01/30 00:32:49;;;;;;;10.10;7.13;;;22.90;99.90;;;;;;5038315;28;20901;-80
2021/01/30 00:35:18;;;;;;;7.20;6.57;;;22.90;99.90;;;;;;5050313;28;20376;-81
2021/01/30 00:37:45;;;;;;;6.90;6.22;;;22.90;99.90;;;;;;5031821;28;20389;-82
2021/01/30 00:40:12;;;;;;;7.03;6.32;;;23.00;99.90;;;;;;5046364;28;20396;-80
2021/01/30 00:42:40;;;;;;;8.23;6.43;;;23.00;99.90;;;;;;5034991;28;20940;-81
2021/01/30 00:45:11;;;;;;;7.32;6.30;;;23.10;99.90;;;;;;5032363;28;20540;-81
2021/01/30 00:47:39;;;;;;;9.20;6.78;;;23.10;99.90;;;;;;5018069;28;20412;-81
2021/01/30 00:50:07;;;;;;;8.55;6.63;;;23.10;99.90;;;;;;5025030;28;20941;-81
2021/01/30 00:52:35;;;;;;;6.43;5.72;;;23.10;99.90;;;;;;5039866;28;20422;-80
2021/01/30 00:55:02;;;;;;;7.47;6.38;;;23.10;99.90;;;;;;5032066;28;20926;-81
2021/01/30 00:57:29;;;;;;;7.18;6.28;;;23.10;99.90;;;;;;5039521;28;20407;-81
2021/01/30 00:59:56;;;;;;;6.43;5.82;;;23.20;99.90;;;;;;5035673;28;20463;-80
2021/01/30 01:02:23;;;;;;;7.97;7.15;;;23.20;99.90;;;;;;5032205;28;20397;-80
2021/01/30 01:04:51;;;;;;;8.25;7.25;;;23.20;99.90;;;;;;5045339;28;21242;-80
2021/01/30 01:07:19;;;;;;;8.97;7.60;;;23.20;99.90;;;;;;5049146;28;20510;-79
2021/01/30 01:09:46;;;;;;;8.70;6.53;;;23.20;99.90;;;;;;5031235;28;20477;-80
2021/01/30 01:12:13;;;;;;;6.73;6.03;;;23.20;99.90;;;;;;5035027;28;20511;-80
2021/01/30 01:14:40;;;;;;;6.83;6.13;;;23.20;99.90;;;;;;5025990;28;20878;-80
2021/01/30 01:17:07;;;;;;;8.03;6.87;;;23.30;99.90;;;;;;5048083;28;20384;-78
2021/01/30 01:19:34;;;;;;;7.68;6.88;;;23.30;99.90;;;;;;5038462;28;20395;-81
2021/01/30 01:22:01;;;;;;;8.00;7.20;;;23.30;99.90;;;;;;5025798;28;20398;-81
2021/01/30 01:24:29;;;;;;;7.63;6.93;;;23.30;99.90;;;;;;5048862;28;20873;-79
2021/01/30 01:26:56;;;;;;;11.23;8.05;;;23.40;99.90;;;;;;5035955;28;20433;-80
2021/01/30 01:29:24;;;;;;;8.57;6.33;;;23.40;99.90;;;;;;5037004;28;21573;-79
2021/01/30 01:31:53;;;;;;;8.02;6.90;;;23.50;99.90;;;;;;5049507;28;20415;-80
2021/01/30 01:34:27;;;;;;;7.93;6.88;;;23.60;99.90;;;;;;5034889;28;20461;-80
2021/01/30 01:36:55;;;;;;;11.30;7.00;;;23.70;99.90;;;;;;5048130;28;20425;-80
2021/01/30 01:39:23;;;;;;;7.80;6.68;;;23.90;99.90;;;;;;5030550;28;20811;-81
2021/01/30 01:41:58;;;;;;;6.85;6.18;;;24.00;99.90;;;;;;5033451;28;20397;-81
2021/01/30 01:44:25;;;;;;;7.63;6.07;;;24.10;99.90;;;;;;5031242;28;20397;-81
2021/01/30 01:46:55;;;;;;;7.00;6.30;;;24.30;99.90;;;;;;5029159;28;20757;-80
2021/01/30 01:49:28;;;;;;;6.95;6.13;;;24.50;99.90;;;;;;5040906;28;20894;-81
2021/01/30 01:52:01;;;;;;;8.10;6.30;;;24.70;99.90;;;;;;5029978;28;20432;-81
2021/01/30 01:54:29;;;;;;;5.95;5.18;;;24.80;99.90;;;;;;5030000;28;20400;-81
2021/01/30 01:57:11;;;;;;;6.23;5.47;;;24.80;99.90;;;;;;5038477;28;21126;-82
2021/01/30 01:59:42;;;;;;;6.07;5.50;;;24.80;99.90;;;;;;5048621;28;20395;-80
2021/01/30 02:02:10;;;;;;;7.95;5.60;;;24.90;99.90;;;;;;5046703;28;20423;-81
2021/01/30 02:04:38;;;;;;;6.85;5.80;;;24.80;99.90;;;;;;5026939;28;20399;-81
2021/01/30 02:07:05;;;;;;;5.13;4.40;;;24.90;99.90;;;;;;5030975;28;20714;-81
2021/01/30 02:09:32;;;;;;;5.30;4.72;;;24.80;99.90;;;;;;5034633;28;20439;-81
2021/01/30 02:12:12;;;;;;;6.18;5.38;;;24.60;99.90;;;;;;5029671;28;20394;-81
2021/01/30 02:14:47;;;;;;;5.60;4.63;;;24.50;99.90;;;;;;5028935;28;21349;-81
2021/01/30 02:17:37;;;;;;;5.40;4.32;;;24.60;99.90;;;;;;5029732;28;20825;-81
2021/01/30 02:20:41;;;;;;;4.43;4.03;;;24.60;99.90;;;;;;5031160;28;20443;-82
2021/01/30 02:23:37;;;;;;;4.40;4.05;;;24.40;99.90;;;;;;5042263;28;20523;-81
2021/01/30 02:26:42;;;;;;;4.60;3.70;;;24.30;99.90;;;;;;5043369;28;20389;-81
2021/01/30 02:29:39;;;;;;;5.32;3.95;;;24.40;99.90;;;;;;5039163;28;20446;-82
2021/01/30 02:32:43;;;;;;;5.55;4.13;;;24.40;99.90;;;;;;5047416;28;20841;-82
2021/01/30 02:35:36;;;;;;;4.22;3.83;;;24.40;99.90;;;;;;5049179;28;20859;-82
2021/01/30 02:38:10;;;;;;;3.28;2.90;;;24.50;99.90;;;;;;5011341;28;20411;-82
2021/01/30 02:40:40;;;;;;;2.83;2.40;;;24.50;99.90;;;;;;5035825;28;20451;-82
2021/01/30 02:43:11;;;;;;;2.38;2.17;;;24.50;99.90;;;;;;5029188;28;20370;-82
2021/01/30 02:45:57;;;;;;;5.00;2.45;;;24.50;99.90;;;;;;5034979;28;20805;-81
2021/01/30 02:48:47;;;;;;;2.10;2.00;;;24.50;99.90;;;;;;5029190;28;20386;-82
2021/01/30 02:51:23;;;;;;;3.20;2.25;;;24.50;99.90;;;;;;5040124;28;20859;-82
2021/01/30 02:53:55;;;;;;;6.45;2.20;;;24.50;99.90;;;;;;5029008;28;20378;-82
2021/01/30 02:56:23;;;;;;;3.30;1.90;;;24.50;99.90;;;;;;5039046;28;20388;-82
2021/01/30 02:59:05;;;;;;;2.58;2.25;;;24.60;99.90;;;;;;5044414;28;20397;-82
2021/01/30 03:01:37;;;;;;;2.35;2.15;;;24.50;99.90;;;;;;5045567;28;20391;-82
2021/01/30 03:04:27;;;;;;;3.00;2.00;;;24.50;99.90;;;;;;5048683;28;20441;-82
2021/01/30 03:07:01;;;;;;;2.30;2.10;;;24.50;99.90;;;;;;5045666;28;20391;-82
2021/01/30 03:10:01;;;;;;;2.80;2.15;;;24.50;99.90;;;;;;5048386;28;20390;-82
2021/01/30 03:12:36;;;;;;;3.55;2.42;;;24.50;99.90;;;;;;5045079;28;20814;-83
2021/01/30 03:15:19;;;;;;;3.10;2.13;;;24.50;99.90;;;;;;5030711;28;20516;-83
2021/01/30 03:17:47;;;;;;;3.55;2.30;;;24.60;99.90;;;;;;5028065;28;20396;-83
2021/01/30 03:20:15;;;;;;;2.95;2.25;;;24.80;99.90;;;;;;5023310;28;20398;-82
2021/01/30 03:22:43;;;;;;;4.27;2.00;;;24.90;99.90;;;;;;5042501;28;20471;-83
2021/01/30 03:25:16;;;;;;;4.95;2.60;;;25.00;99.90;;;;;;5036377;28;20392;-83
2021/01/30 03:27:43;;;;;;;3.58;2.17;;;25.00;99.90;;;;;;5046877;28;20717;-83
2021/01/30 03:30:12;;;;;;;2.88;2.10;;;24.90;99.90;;;;;;5013152;28;20480;-84
2021/01/30 03:32:39;;;;;;;4.10;2.30;;;24.90;99.90;;;;;;5014695;28;20413;-83
2021/01/30 03:35:11;;;;;;;3.10;1.80;;;24.80;99.90;;;;;;5038316;28;20422;-83
2021/01/30 03:37:39;;;;;;;4.23;2.00;;;24.80;99.90;;;;;;5039905;28;20396;-84
2021/01/30 03:40:07;;;;;;;3.05;2.17;;;24.90;99.90;;;;;;5036397;28;20424;-83
2021/01/30 03:42:34;;;;;;;3.35;1.95;;;24.90;99.90;;;;;;5031642;28;20432;-83
2021/01/30 03:45:01;;;;;;;2.75;2.10;;;24.90;99.90;;;;;;5016153;28;20377;-83
2021/01/30 03:47:28;;;;;;;2.20;2.00;;;24.90;99.90;;;;;;5016774;28;20399;-83
2021/01/30 03:49:55;;;;;;;4.90;2.65;;;24.90;99.90;;;;;;5034655;28;20947;-83
2021/01/30 03:52:22;;;;;;;4.95;2.38;;;24.90;99.90;;;;;;5032022;28;20413;-84
2021/01/30 03:54:49;;;;;;;6.53;3.70;;;25.00;99.90;;;;;;5014550;28;20385;-83
2021/01/30 03:57:17;;;;;;;5.07;2.50;;;25.20;99.90;;;;;;5014295;28;20902;-84
2021/01/30 03:59:44;;;;;;;4.32;2.05;;;25.40;99.90;;;;;;5014102;28;20386;-83
2021/01/30 04:02:11;;;;;;;2.65;1.90;;;25.40;99.90;;;;;;5014233;28;20385;-84
2021/01/30 04:04:38;;;;;;;3.13;2.05;;;25.40;99.90;;;;;;5031896;28;20393;-84
2021/01/30 04:07:05;;;;;;;3.70;1.80;;;25.30;99.90;;;;;;5032018;28;20962;-84
2021/01/30 04:09:32;;;;;;;2.28;1.60;;;25.30;99.90;;;;;;5032472;28;20837;-84
2021/01/30 04:11:59;;;;;;;3.38;1.33;;;25.20;99.90;;;;;;5031875;28;20478;-84
2021/01/30 04:14:27;;;;;;;2.60;1.45;;;25.10;99.90;;;;;;5031920;28;20412;-84
2021/01/30 04:16:54;;;;;;;2.37;1.13;;;25.20;99.90;;;;;;5031925;28;20402;-84
2021/01/30 04:19:21;;;;;;;1.80;1.00;;;25.20;99.90;;;;;;5014022;28;20518;-84
2021/01/30 04:21:48;;;;;;;1.05;0.90;;;25.30;99.90;;;;;;5031791;28;20385;-85
2021/01/30 04:24:15;;;;;;;2.45;1.00;;;25.20;99.90;;;;;;5013895;28;20377;-85
2021/01/30 04:26:45;;;;;;;3.80;0.90;;;25.20;99.90;;;;;;5013800;28;20420;-84
2021/01/30 04:29:12;;;;;;;1.40;0.80;;;25.20;99.90;;;;;;5013698;28;20864;-84
2021/01/30 04:31:40;;;;;;;1.13;0.80;;;25.50;99.90;;;;;;5031406;28;20482;-84
2021/01/30 04:34:07;;;;;;;3.75;1.05;;;25.70;99.90;;;;;;5013687;28;20393;-84
2021/01/30 04:36:34;;;;;;;2.03;0.80;;;25.70;99.90;;;;;;5031554;28;20385;-84
2021/01/30 04:39:01;;;;;;;2.75;0.60;;;25.80;99.90;;;;;;5031864;28;20376;-84
2021/01/30 04:41:40;;;;;;;3.47;0.70;;;25.90;99.90;;;;;;5013433;28;20390;-84
2021/01/30 04:44:13;;;;;;;2.75;0.73;;;26.00;99.90;;;;;;5031380;28;20405;-84
2021/01/30 04:47:17;;;;;;;1.73;0.75;;;26.10;99.90;;;;;;5031346;28;20386;-84
2021/01/30 04:50:22;;;;;;;1.35;0.57;;;26.20;99.90;;;;;;5030875;28;20393;-84
2021/01/30 04:53:16;;;;;;;2.00;0.60;;;26.30;99.90;;;;;;5030974;28;20502;-84
2021/01/30 04:55:43;;;;;;;1.90;0.65;;;26.30;99.60;;;;;;5031088;28;20393;-84
2021/01/30 04:58:29;;;;;;;2.25;0.60;;;26.30;99.80;;;;;;5013110;28;20407;-84
2021/01/30 05:01:14;;;;;;;5.43;0.90;;;26.50;98.00;;;;;;5030976;28;20365;-84
2021/01/30 05:03:57;;;;;;;3.45;0.70;;;26.50;99.90;;;;;;5012838;28;20408;-84
2021/01/30 05:07:01;;;;;;;1.60;0.50;;;26.60;99.90;;;;;;5030907;28;20472;-84
2021/01/30 05:09:54;;;;;;;3.20;0.57;;;26.80;99.90;;;;;;5031287;28;20400;-84
2021/01/30 05:12:48;;;;;;;0.93;0.50;;;26.80;97.90;;;;;;5012865;28;20467;-84
2021/01/30 05:15:24;;;;;;;1.00;0.60;;;26.80;98.10;;;;;;5030747;28;20717;-84
2021/01/30 05:18:06;;;;;;;2.30;0.47;;;26.90;97.10;;;;;;5030812;28;20400;-83
2021/01/30 05:20:37;;;;;;;1.45;0.63;;;27.00;96.00;;;;;;5012833;28;20404;-84
2021/01/30 05:23:06;;;;;;;1.10;0.45;;;27.10;97.00;;;;;;5030555;28;20413;-84
2021/01/30 05:25:34;;;;;;;2.25;0.50;;;27.20;97.30;;;;;;5012940;28;20384;-84
2021/01/30 05:28:24;;;;;;;1.35;0.40;;;27.30;97.30;;;;;;5012687;28;20467;-84
2021/01/30 05:31:30;;;;;;;2.17;0.50;;;27.40;96.50;;;;;;5030056;28;20373;-84
2021/01/30 05:34:10;;;;;;;3.20;0.70;;;27.50;95.40;;;;;;5019028;28;20394;-82
2021/01/30 05:36:45;;;;;;;1.35;0.60;;;27.50;93.70;;;;;;5030413;28;20389;-83
2021/01/30 05:39:41;;;;;;;2.67;0.50;;;27.50;94.40;;;;;;5012895;28;20377;-83
2021/01/30 05:42:35;;;;;;;2.88;0.65;;;27.50;95.20;;;;;;5030134;28;20374;-83
2021/01/30 05:45:26;;;;;;;2.53;0.60;;;27.50;93.40;;;;;;5012382;28;20401;-83
2021/01/30 05:47:54;;;;;;;2.33;0.60;;;27.60;92.90;;;;;;5012173;28;20377;-82
2021/01/30 05:50:51;;;;;;;3.00;0.60;;;27.60;93.20;;;;;;5012217;28;20884;-83
2021/01/30 05:53:22;;;;;;;2.08;0.60;;;27.60;93.10;;;;;;5030069;28;20389;-82
2021/01/30 05:55:50;;;;;;;3.80;0.60;;;27.60;91.70;;;;;;5029973;28;20389;-82
2021/01/30 05:58:20;;;;;;;3.40;0.60;;;27.60;92.50;;;;;;5012022;28;20401;-83
2021/01/30 06:00:47;;;;;;;3.65;0.68;;;27.70;92.10;;;;;;5029790;28;20381;-83
2021/01/30 06:03:21;;;;;;;1.23;0.47;;;27.70;91.70;;;;;;5011337;28;20590;-83
2021/01/30 06:06:09;;;;;;;2.60;0.63;;;27.70;92.40;;;;;;5029774;28;20389;-83
2021/01/30 06:08:37;;;;;;;1.63;0.60;;;27.60;90.60;;;;;;5030574;28;20471;-82
2021/01/30 06:11:08;;;;;;;1.90;0.75;;;27.70;91.10;;;;;;5033113;28;20404;-82
2021/01/30 06:13:50;;;;;;;3.35;0.80;;;27.60;92.30;;;;;;5037199;28;20884;-82
2021/01/30 06:16:39;;;;;;;4.10;0.97;;;27.60;90.80;;;;;;5010057;28;20381;-83
2021/01/30 06:19:31;;;;;;;3.05;0.70;;;27.60;91.40;;;;;;5028879;28;20446;-83
2021/01/30 06:22:28;;;;;;;2.72;0.50;;;27.50;90.10;;;;;;5029383;28;20366;-82
2021/01/30 06:24:55;;;;;;;1.00;0.60;;;27.40;91.70;;;;;;5006822;28;20381;-83
2021/01/30 06:27:36;;;;;;;3.17;0.73;;;27.40;92.90;;;;;;5029352;28;20409;-83
2021/01/30 06:30:29;;;;;;;1.27;0.50;;;27.40;94.70;;;;;;5029222;28;21429;-83
2021/01/30 06:33:00;;;;;;;2.05;0.50;;;27.30;93.00;;;;;;5023900;28;20815;-83
2021/01/30 06:35:41;;;;;;;2.65;0.88;;;27.20;93.10;;;;;;5011488;28;20385;-83
2021/01/30 06:38:13;;;;;;;2.60;0.88;;;27.20;94.20;;;;;;5029344;28;20406;-83
2021/01/30 06:40:59;;;;;;;2.92;0.73;;;27.10;94.20;;;;;;5029257;28;20749;-84
2021/01/30 06:43:42;;;;;;;3.85;0.93;;;27.10;94.50;;;;;;5017375;28;20453;-83
2021/01/30 06:46:21;;;;;;;2.58;0.70;;;27.10;93.80;;;;;;5030376;28;20900;-83
2021/01/30 06:48:54;;;;;;;3.38;0.80;;;27.00;95.00;;;;;;5039313;28;20395;-83
2021/01/30 06:51:31;;;;;;;1.53;0.70;;;27.00;95.00;;;;;;5026536;28;20399;-82
2021/01/30 06:54:23;;;;;;;1.30;0.70;;;26.90;94.90;;;;;;5011657;28;20401;-81
2021/01/30 06:57:09;;;;;;;1.80;0.82;;;26.80;96.40;;;;;;5029044;28;20388;-82
2021/01/30 07:00:03;;;;;;;2.60;0.90;;;26.70;95.50;;;;;;5042682;28;20450;-81
2021/01/30 07:02:39;;;;;;;2.50;0.80;;;26.60;95.40;;;;;;5028703;28;20380;-82
2021/01/30 07:05:28;;;;;;;5.65;0.90;;;26.60;96.00;;;;;;5028621;28;20496;-82
2021/01/30 07:08:03;;;;;;;3.65;1.10;;;26.50;96.90;;;;;;5028763;28;20428;-81
2021/01/30 07:10:44;;;;;;;2.40;0.75;;;26.50;98.20;;;;;;5028976;28;20389;-82
2021/01/30 07:13:41;;;;;;;1.45;0.77;;;26.50;98.10;;;;;;5031541;28;20408;-81
2021/01/30 07:16:56;;;;;;;3.85;0.90;;;26.50;97.50;;;;;;5037086;28;20375;-82
2021/01/30 07:19:55;;;;;;;3.33;1.13;;;26.50;98.30;;;;;;5055202;28;20388;-81
2021/01/30 07:22:30;;;;;;;3.67;1.10;;;26.50;97.90;;;;;;5055177;28;20363;-81
2021/01/30 07:25:15;;;;;;;3.42;1.00;;;26.40;98.40;;;;;;5037259;28;20470;-81
2021/01/30 07:28:02;;;;;;;1.92;0.93;;;26.30;99.20;;;;;;5036846;28;20384;-82
2021/01/30 07:30:57;;;;;;;1.73;1.00;;;26.20;98.30;;;;;;5046113;28;20949;-83
2021/01/30 07:33:58;;;;;;;2.53;1.20;;;26.20;98.60;;;;;;5035679;28;20485;-81
2021/01/30 07:36:33;;;;;;;2.13;1.10;;;26.20;98.10;;;;;;5030953;28;20385;-82
2021/01/30 07:39:24;;;;;;;2.38;1.02;;;26.10;98.40;;;;;;5041627;28;20405;-81
2021/01/30 07:42:05;;;;;;;3.25;1.00;;;26.00;99.00;;;;;;5035026;28;20442;-82
2021/01/30 07:45:02;;;;;;;2.85;1.00;;;25.90;99.10;;;;;;5018790;28;20431;-82
2021/01/30 07:47:46;;;;;;;2.53;0.82;;;25.80;99.20;;;;;;5006166;28;20484;-83
2021/01/30 07:50:22;;;;;;;3.40;1.20;;;25.80;98.40;;;;;;5016964;28;20432;-82
2021/01/30 07:53:01;;;;;;;3.53;1.10;;;25.80;99.30;;;;;;5034881;28;20397;-82
2021/01/30 07:55:29;;;;;;;2.63;1.17;;;25.70;99.20;;;;;;5035040;28;20376;-82
2021/01/30 07:58:12;;;;;;;2.92;1.20;;;25.80;98.80;;;;;;5033605;28;20383;-83
2021/01/30 08:01:03;;;;;;;1.75;1.30;;;25.70;99.20;;;;;;5034982;28;20385;-83
2021/01/30 08:03:50;;;;;;;2.45;1.08;;;25.60;99.80;;;;;;5016809;28;20784;-81
2021/01/30 08:06:35;;;;;;;2.17;1.20;;;25.60;99.90;;;;;;5015099;28;20387;-83
2021/01/30 08:09:09;;;;;;;2.40;1.20;;;25.50;99.90;;;;;;5026543;28;20407;-82
2021/01/30 08:11:47;;;;;;;4.32;1.52;;;25.40;99.90;;;;;;5034836;28;20413;-82
2021/01/30 08:14:28;;;;;;;4.22;1.10;;;25.40;99.90;;;;;;5033870;28;20378;-85
2021/01/30 08:17:27;;;;;;;1.80;1.30;;;25.40;99.90;;;;;;5025122;28;20430;-81
2021/01/30 08:19:54;;;;;;;4.00;1.42;;;25.30;99.90;;;;;;5016066;28;20382;-83
2021/01/30 08:23:01;;;;;;;3.72;1.30;;;25.20;99.90;;;;;;5014750;28;20926;-83
2021/01/30 08:25:47;;;;;;;4.20;1.63;;;25.10;99.90;;;;;;4998172;28;20459;-81
2021/01/30 08:28:39;;;;;;;6.32;1.80;;;25.10;99.90;;;;;;5013720;28;20394;-82
2021/01/30 08:31:06;;;;;;;4.05;1.40;;;25.10;99.90;;;;;;5002186;28;20402;-81
2021/01/30 08:34:11;;;;;;;2.22;1.38;;;25.00;99.90;;;;;;5024924;28;20405;-82
2021/01/30 08:36:44;;;;;;;6.13;1.90;;;24.90;99.90;;;;;;4930695;29;20396;-82
2021/01/30 08:39:35;;;;;;;4.30;1.63;;;24.90;99.90;;;;;;4932510;29;20394;-83
2021/01/30 08:42:18;;;;;;;5.00;1.48;;;24.80;99.90;;;;;;4984490;28;20684;-82
2021/01/30 08:44:58;;;;;;;7.93;1.75;;;24.80;99.90;;;;;;5024414;28;20489;-82
2021/01/30 08:47:37;;;;;;;5.15;1.70;;;24.70;99.90;;;;;;5013146;28;20465;-83
2021/01/30 08:50:41;;;;;;;3.83;1.70;;;24.60;99.90;;;;;;5021319;28;20386;-82
2021/01/30 08:53:23;;;;;;;3.15;1.70;;;24.60;99.90;;;;;;5011356;28;20418;-82
2021/01/30 08:55:56;;;;;;;2.83;1.50;;;24.50;99.90;;;;;;5011926;28;20461;-82
2021/01/30 08:58:39;;;;;;;2.20;1.70;;;24.50;99.90;;;;;;5026695;28;20432;-83
2021/01/30 09:01:29;;;;;;;4.82;1.60;;;24.40;99.90;;;;;;5029310;28;20378;-82
2021/01/30 09:04:03;;;;;;;5.35;1.90;;;24.30;99.90;;;;;;5020928;28;20903;-82
2021/01/30 09:06:58;;;;;;;3.10;1.65;;;24.30;99.90;;;;;;5030868;28;20409;-83
2021/01/30 09:09:28;;;;;;;4.95;2.00;;;24.30;99.90;;;;;;5036359;28;20466;-83
2021/01/30 09:12:05;;;;;;;2.70;1.70;;;24.30;99.90;;;;;;5036801;28;20935;-82
2021/01/30 09:14:38;;;;;;;6.22;2.10;;;24.30;99.90;;;;;;5029942;28;20401;-83
2021/01/30 09:17:06;;;;;;;5.43;1.88;;;24.30;99.90;;;;;;5033177;28;20397;-83
2021/01/30 09:19:55;;;;;;;5.45;1.80;;;24.20;99.90;;;;;;5039730;28;21170;-83
2021/01/30 09:22:45;;;;;;;4.90;1.85;;;24.10;99.90;;;;;;5026851;28;20383;-83
2021/01/30 09:25:37;;;;;;;3.95;1.80;;;24.10;99.90;;;;;;5034367;28;20384;-83
2021/01/30 09:28:18;;;;;;;2.90;1.90;;;24.00;99.90;;;;;;5028170;28;20806;-83
2021/01/30 09:31:09;;;;;;;4.03;2.00;;;23.90;99.90;;;;;;5029887;28;20436;-83
2021/01/30 09:33:56;;;;;;;4.43;2.00;;;23.90;99.90;;;;;;5026719;28;20401;-85
2021/01/30 09:36:47;;;;;;;4.45;1.75;;;23.90;99.90;;;;;;5016092;28;20434;-83
2021/01/30 09:39:31;;;;;;;4.95;2.20;;;23.90;99.90;;;;;;5032121;28;20497;-83
2021/01/30 09:42:19;;;;;;;7.28;2.20;;;24.00;99.90;;;;;;5031148;28;20402;-84
2021/01/30 09:44:59;;;;;;;5.05;2.67;;;23.90;99.90;;;;;;5027892;28;20500;-82
2021/01/30 09:47:27;;;;;;;6.00;2.90;;;23.80;99.90;;;;;;5038945;28;20522;-81
2021/01/30 09:50:01;;;;;;;7.60;2.92;;;23.60;99.90;;;;;;5024092;28;20385;-82
2021/01/30 09:52:29;;;;;;;4.68;2.75;;;23.40;99.90;;;;;;5027507;28;20410;-83
2021/01/30 09:55:12;;;;;;;6.47;2.42;;;23.10;99.90;;;;;;5031431;28;20442;-81
2021/01/30 09:57:43;;;;;;;7.07;2.70;;;23.00;99.90;;;;;;5027374;28;20463;-81
2021/01/30 10:00:18;;;;;;;5.40;3.00;;;23.00;99.90;;;;;;5027122;28;20378;-81
2021/01/30 10:02:46;;;;;;;6.90;2.97;;;22.80;99.90;;;;;;5022548;28;20400;-82
2021/01/30 10:05:21;;;;;;;5.68;3.22;;;22.80;99.90;;;;;;5028634;28;20405;-82
2021/01/30 10:07:48;;;;;;;7.00;2.80;;;22.70;99.90;;;;;;5026503;28;20405;-82
2021/01/30 10:10:25;;;;;;;8.60;3.23;;;22.60;99.90;;;;;;5025799;28;20494;-83
2021/01/30 10:12:54;;;;;;;6.20;3.05;;;22.50;99.90;;;;;;5021678;28;20441;-84
2021/01/30 10:15:36;;;;;;;5.47;3.30;;;22.40;99.90;;;;;;5024218;28;20389;-84
2021/01/30 10:18:10;;;;;;;9.93;3.60;;;22.20;99.90;;;;;;5026636;28;20403;-83
2021/01/30 10:20:48;;;;;;;5.22;3.33;;;22.10;99.90;;;;;;5020012;28;20394;-82
2021/01/30 10:23:33;;;;;;;8.13;3.10;;;22.10;99.90;;;;;;5021564;28;20489;-83
2021/01/30 10:26:21;;;;;;;5.43;3.15;;;22.20;99.90;;;;;;5026318;28;20399;-82
2021/01/30 10:29:04;;;;;;;4.10;3.00;;;22.20;99.90;;;;;;5018865;28;20882;-83
2021/01/30 10:31:35;;;;;;;5.18;3.33;;;22.10;99.90;;;;;;5021305;28;20414;-83
2021/01/30 10:34:08;;;;;;;6.88;3.35;;;22.00;99.90;;;;;;5021042;28;20560;-83
2021/01/30 10:36:38;;;;;;;8.98;3.70;;;22.00;99.90;;;;;;5022032;28;20387;-83
2021/01/30 10:39:08;;;;;;;5.75;3.78;;;22.00;99.90;;;;;;5019525;28;20398;-83
2021/01/30 10:41:35;;;;;;;8.65;3.90;;;21.90;99.90;;;;;;5020735;28;20385;-84
2021/01/30 10:44:05;;;;;;;10.35;4.10;;;21.80;99.90;;;;;;5027093;28;20421;-84
2021/01/30 10:46:43;;;;;;;6.20;3.90;;;21.80;99.90;;;;;;5029774;28;20963;-83
2021/01/30 10:49:27;;;;;;;7.03;4.10;;;21.70;99.90;;;;;;5040573;28;20396;-84
2021/01/30 10:52:24;;;;;;;10.50;4.38;;;21.70;99.90;;;;;;5028584;28;20939;-83
2021/01/30 10:54:52;;;;;;;7.20;3.80;;;21.70;99.90;;;;;;5022289;28;20405;-82
2021/01/30 10:57:23;;;;;;;7.43;4.22;;;21.70;99.90;;;;;;5018130;28;20425;-83
2021/01/30 10:59:55;;;;;;;6.50;3.53;;;21.70;99.90;;;;;;5025469;28;20904;-82
2021/01/30 11:02:32;;;;;;;6.73;3.80;;;21.70;99.90;;;;;;5028622;28;20547;-83
2021/01/30 11:05:08;;;;;;;5.55;3.47;;;21.70;99.90;;;;;;5024215;28;20396;-82
2021/01/30 11:07:44;;;;;;;5.40;3.45;;;21.70;99.90;;;;;;5029087;28;20403;-83
2021/01/30 11:10:36;;;;;;;7.20;3.87;;;21.70;99.90;;;;;;5029322;28;20443;-84
2021/01/30 11:13:34;;;;;;;7.87;3.97;;;21.70;99.90;;;;;;5029710;28;20416;-83
2021/01/30 11:16:06;;;;;;;8.38;4.00;;;21.70;99.90;;;;;;5029088;28;20412;-83
2021/01/30 11:18:37;;;;;;;8.77;4.03;;;21.80;99.90;;;;;;5032394;28;20902;-83
2021/01/30 11:21:07;;;;;;;7.78;4.28;;;21.80;99.90;;;;;;5027626;28;20395;-84
2021/01/30 11:23:52;;;;;;;7.60;4.27;;;21.90;99.90;;;;;;5027637;28;20392;-83
2021/01/30 11:26:33;;;;;;;6.28;4.78;;;21.80;99.90;;;;;;5022589;28;21229;-84
2021/01/30 11:29:03;;;;;;;7.32;4.32;;;21.80;99.90;;;;;;5029294;28;20404;-83
2021/01/30 11:31:30;;;;;;;5.28;3.85;;;21.80;99.90;;;;;;5026020;28;20424;-82
2021/01/30 11:33:58;;;;;;;8.73;4.25;;;21.80;99.90;;;;;;5023240;28;21556;-82
2021/01/30 11:36:26;;;;;;;9.13;4.72;;;21.80;99.90;;;;;;5021262;28;20390;-84
2021/01/30 11:38:59;;;;;;;7.18;4.28;;;21.80;99.90;;;;;;5044622;28;20415;-84
2021/01/30 11:41:27;;;;;;;9.65;4.40;;;21.70;99.90;;;;;;5040218;28;20474;-83
2021/01/30 11:43:54;;;;;;;11.10;4.93;;;21.60;99.90;;;;;;5028813;28;20502;-83
2021/01/30 11:46:21;;;;;;;9.27;5.95;;;21.50;99.90;;;;;;5029231;28;20404;-84
2021/01/30 11:48:49;;;;;;;8.38;5.07;;;21.50;99.90;;;;;;5027860;28;20464;-84
2021/01/30 11:51:29;;;;;;;8.85;4.85;;;21.60;99.90;;;;;;5028493;28;20385;-84
2021/01/30 11:53:57;;;;;;;7.82;4.70;;;21.60;99.90;;;;;;5028663;28;20443;-84
2021/01/30 11:56:24;;;;;;;8.93;4.93;;;21.60;99.90;;;;;;5028506;28;20450;-84
2021/01/30 11:58:51;;;;;;;7.93;4.53;;;21.60;99.90;;;;;;5028350;28;20413;-84
2021/01/30 12:01:19;;;;;;;6.65;4.10;;;21.60;99.90;;;;;;5032986;28;20387;-84
2021/01/30 12:03:46;;;;;;;5.70;4.22;;;21.60;99.90;;;;;;5046731;28;20384;-83
2021/01/30 12:06:13;;;;;;;6.22;4.60;;;21.60;99.90;;;;;;5051922;28;20487;-84
2021/01/30 12:08:40;;;;;;;6.63;4.28;;;21.60;99.90;;;;;;5051679;28;20908;-83
2021/01/30 12:11:08;;;;;;;7.93;4.37;;;21.60;99.90;;;;;;5052295;28;20399;-83
2021/01/30 12:13:38;;;;;;;5.80;4.00;;;21.60;99.90;;;;;;5044524;28;20428;-84
2021/01/30 12:16:05;;;;;;;7.68;4.50;;;21.60;99.90;;;;;;5035701;28;20436;-83
2021/01/30 12:18:33;;;;;;;8.45;4.68;;;21.60;99.90;;;;;;5044604;28;20397;-83
2021/01/30 12:21:02;;;;;;;8.80;4.43;;;21.50;99.90;;;;;;5046235;28;20731;-83
2021/01/30 12:23:29;;;;;;;6.22;4.20;;;21.50;99.90;;;;;;5045860;28;20392;-84
2021/01/30 12:25:56;;;;;;;8.35;4.57;;;21.50;99.90;;;;;;5040388;28;20449;-84
2021/01/30 12:28:27;;;;;;;7.35;4.13;;;21.60;99.90;;;;;;5038814;28;20405;-86
2021/01/30 12:30:55;;;;;;;6.27;4.00;;;21.60;99.90;;;;;;5023403;28;20921;-87
2021/01/30 12:33:22;;;;;;;5.93;4.28;;;21.50;99.90;;;;;;5031440;28;20424;-86
2021/01/30 12:35:49;;;;;;;7.43;4.28;;;21.50;99.90;;;;;;5036124;28;20386;-86
2021/01/30 12:38:17;;;;;;;8.70;4.22;;;21.50;99.90;;;;;;5038836;28;20479;-86
2021/01/30 12:40:46;;;;;;;6.55;4.22;;;21.50;99.90;;;;;;5036550;28;20409;-86
2021/01/30 12:43:16;;;;;;;5.78;4.13;;;21.50;99.90;;;;;;5032766;28;21013;-85
2021/01/30 12:45:44;;;;;;;7.00;4.30;;;21.50;99.90;;;;;;5035018;28;20442;-86
2021/01/30 12:48:12;;;;;;;7.55;4.10;;;21.40;99.90;;;;;;5040307;28;20736;-86
2021/01/30 12:50:39;;;;;;;7.70;3.95;;;21.50;99.90;;;;;;5033459;28;20401;-86
2021/01/30 12:53:07;;;;;;;4.70;3.90;;;21.50;99.90;;;;;;5032520;28;20434;-86
2021/01/30 12:55:35;;;;;;;6.63;4.13;;;21.50;99.90;;;;;;5049992;28;20378;-86
2021/01/30 12:58:14;;;;;;;6.68;4.15;;;21.50;99.90;;;;;;5041941;28;20378;-86
2021/01/30 13:00:41;;;;;;;6.55;4.07;;;21.60;99.90;;;;;;5035685;28;20407;-86
2021/01/30 13:03:09;;;;;;;4.68;3.78;;;21.60;99.90;;;;;;5039279;28;20488;-85
2021/01/30 13:05:39;;;;;;;5.82;3.65;;;21.60;99.90;;;;;;5050870;28;20403;-86
2021/01/30 13:08:06;;;;;;;5.43;3.80;;;21.60;99.90;;;;;;5050420;28;20438;-85
2021/01/30 13:10:33;;;;;;;6.78;3.88;;;21.60;99.90;;;;;;5050328;28;20460;-85
2021/01/30 13:13:01;;;;;;;5.90;3.65;;;21.70;99.90;;;;;;5024737;28;20421;-85
2021/01/30 13:15:28;;;;;;;6.20;3.80;;;21.70;99.90;;;;;;5045794;28;20396;-86
2021/01/30 13:17:55;;;;;;;4.85;3.70;;;21.70;99.90;;;;;;5050693;28;20371;-86
2021/01/30 13:20:23;;;;;;;8.07;3.90;;;21.60;99.90;;;;;;5049578;28;20870;-85
2021/01/30 13:22:50;;;;;;;7.18;4.13;;;21.50;99.90;;;;;;5050788;28;20451;-86
2021/01/30 13:25:22;;;;;;;8.93;3.85;;;21.50;99.90;;;;;;5047293;28;20388;-86
2021/01/30 13:27:49;;;;;;;6.03;3.88;;;21.50;99.90;;;;;;5045702;28;20407;-87
2021/01/30 13:30:24;;;;;;;6.77;3.90;;;21.50;99.90;;;;;;5034151;28;20381;-87